sensor_id;sensor_type;location;lat;lon;timestamp;P1;durP1;ratioP1;P2;durP2;ratioP2
5379;SDS011;2713;42.680;23.310;2022-07-23T00:00:08;14.50;;;10.50;;
5379;SDS011;2713;42.680;23.310;2022-07-23T00:02:37;13.37;;;10.40;;
5379;SDS011;2713;42.680;23.310;2022-07-23T00:05:04;13.53;;;10.37;;
5379;SDS011;2713;42.680;23.310;2022-07-23T00:07:31;11.53;;;10.30;;
5379;SDS011;2713;42.680;23.310;2022-07-23T00:09:58;13.23;;;10.30;;
5379;SDS011;2713;42.680;23.310;2022-07-23T00:12:25;14.23;;;10.73;;
5379;SDS011;2713;42.680;23.310;2022-07-23T00:14:52;11.83;;;10.63;;
5379;SDS011;2713;42.680;23.310;2022-07-23T00:17:19;12.57;;;11.27;;
5379;SDS011;2713;42.680;23.310;2022-07-23T00:19:47;11.73;;;10.53;;
5379;SDS011;2713;42.680;23.310;2022-07-23T00:22:14;11.50;;;10.40;;
5379;SDS011;2713;42.680;23.310;2022-07-23T00:24:41;11.77;;;10.10;;
5379;SDS011;2713;42.680;23.310;2022-07-23T00:27:08;13.30;;;11.47;;
5379;SDS011;2713;42.680;23.310;2022-07-23T00:29:36;15.23;;;11.23;;
5379;SDS011;2713;42.680;23.310;2022-07-23T00:32:03;11.43;;;10.33;;
5379;SDS011;2713;42.680;23.310;2022-07-23T00:34:30;14.33;;;10.80;;
5379;SDS011;2713;42.680;23.310;2022-07-23T00:36:59;14.23;;;10.80;;
5379;SDS011;2713;42.680;23.310;2022-07-23T00:39:26;13.03;;;10.70;;
5379;SDS011;2713;42.680;23.310;2022-07-23T00:41:53;12.77;;;10.30;;
5379;SDS011;2713;42.680;23.310;2022-07-23T00:44:21;12.90;;;10.40;;
5379;SDS011;2713;42.680;23.310;2022-07-23T00:46:50;12.13;;;10.93;;
5379;SDS011;2713;42.680;23.310;2022-07-23T00:49:19;16.43;;;11.57;;
5379;SDS011;2713;42.680;23.310;2022-07-23T00:51:46;16.70;;;12.20;;
5379;SDS011;2713;42.680;23.310;2022-07-23T00:54:15;20.07;;;12.90;;
5379;SDS011;2713;42.680;23.310;2022-07-23T00:56:44;12.90;;;11.40;;
5379;SDS011;2713;42.680;23.310;2022-07-23T00:59:11;14.03;;;11.03;;
5379;SDS011;2713;42.680;23.310;2022-07-23T01:01:39;12.70;;;11.40;;
5379;SDS011;2713;42.680;23.310;2022-07-23T01:04:07;13.50;;;11.07;;
5379;SDS011;2713;42.680;23.310;2022-07-23T01:06:34;12.30;;;11.00;;
5379;SDS011;2713;42.680;23.310;2022-07-23T01:09:03;13.63;;;10.80;;
5379;SDS011;2713;42.680;23.310;2022-07-23T01:11:32;13.23;;;11.00;;
5379;SDS011;2713;42.680;23.310;2022-07-23T01:14:07;14.27;;;10.13;;
5379;SDS011;2713;42.680;23.310;2022-07-23T01:16:34;12.27;;;11.07;;
5379;SDS011;2713;42.680;23.310;2022-07-23T01:19:01;13.63;;;11.40;;
5379;SDS011;2713;42.680;23.310;2022-07-23T01:21:32;14.07;;;11.60;;
5379;SDS011;2713;42.680;23.310;2022-07-23T01:24:03;16.53;;;11.67;;
5379;SDS011;2713;42.680;23.310;2022-07-23T01:26:32;12.83;;;10.47;;
5379;SDS011;2713;42.680;23.310;2022-07-23T01:28:59;12.70;;;10.47;;
5379;SDS011;2713;42.680;23.310;2022-07-23T01:34:07;18.00;;;10.27;;
5379;SDS011;2713;42.680;23.310;2022-07-23T01:36:35;11.70;;;10.60;;
5379;SDS011;2713;42.680;23.310;2022-07-23T01:39:05;11.87;;;10.67;;
5379;SDS011;2713;42.680;23.310;2022-07-23T01:41:33;11.20;;;10.10;;
5379;SDS011;2713;42.680;23.310;2022-07-23T01:44:01;15.07;;;11.20;;
5379;SDS011;2713;42.680;23.310;2022-07-23T01:46:29;12.10;;;10.73;;
5379;SDS011;2713;42.680;23.310;2022-07-23T01:48:56;11.67;;;10.47;;
5379;SDS011;2713;42.680;23.310;2022-07-23T01:51:49;13.20;;;10.57;;
5379;SDS011;2713;42.680;23.310;2022-07-23T01:54:37;13.23;;;10.23;;
5379;SDS011;2713;42.680;23.310;2022-07-23T01:57:06;14.00;;;10.60;;
5379;SDS011;2713;42.680;23.310;2022-07-23T01:59:33;11.37;;;10.27;;
5379;SDS011;2713;42.680;23.310;2022-07-23T02:02:01;13.13;;;10.33;;
5379;SDS011;2713;42.680;23.310;2022-07-23T02:04:30;11.70;;;9.93;;
5379;SDS011;2713;42.680;23.310;2022-07-23T02:07:00;16.10;;;10.87;;
5379;SDS011;2713;42.680;23.310;2022-07-23T02:09:27;13.67;;;11.00;;
5379;SDS011;2713;42.680;23.310;2022-07-23T02:11:56;12.63;;;10.00;;
5379;SDS011;2713;42.680;23.310;2022-07-23T02:14:23;12.60;;;10.83;;
5379;SDS011;2713;42.680;23.310;2022-07-23T02:16:50;12.80;;;10.63;;
5379;SDS011;2713;42.680;23.310;2022-07-23T02:19:17;13.40;;;11.13;;
5379;SDS011;2713;42.680;23.310;2022-07-23T02:21:44;11.87;;;10.57;;
5379;SDS011;2713;42.680;23.310;2022-07-23T02:24:11;16.27;;;11.40;;
5379;SDS011;2713;42.680;23.310;2022-07-23T02:26:40;14.43;;;11.30;;
5379;SDS011;2713;42.680;23.310;2022-07-23T02:29:08;13.30;;;10.87;;
5379;SDS011;2713;42.680;23.310;2022-07-23T02:31:35;12.63;;;10.30;;
5379;SDS011;2713;42.680;23.310;2022-07-23T02:34:04;11.73;;;10.50;;
5379;SDS011;2713;42.680;23.310;2022-07-23T02:36:32;12.30;;;10.70;;
5379;SDS011;2713;42.680;23.310;2022-07-23T02:38:59;13.47;;;11.00;;
5379;SDS011;2713;42.680;23.310;2022-07-23T02:41:29;14.67;;;9.87;;
5379;SDS011;2713;42.680;23.310;2022-07-23T02:43:55;16.47;;;11.70;;
5379;SDS011;2713;42.680;23.310;2022-07-23T02:46:24;14.33;;;11.10;;
5379;SDS011;2713;42.680;23.310;2022-07-23T02:48:51;14.57;;;11.50;;
5379;SDS011;2713;42.680;23.310;2022-07-23T02:51:18;12.53;;;11.17;;
5379;SDS011;2713;42.680;23.310;2022-07-23T02:53:52;11.13;;;10.13;;
5379;SDS011;2713;42.680;23.310;2022-07-23T02:56:19;14.57;;;11.37;;
5379;SDS011;2713;42.680;23.310;2022-07-23T02:58:46;17.03;;;11.00;;
5379;SDS011;2713;42.680;23.310;2022-07-23T03:01:13;12.13;;;10.63;;
5379;SDS011;2713;42.680;23.310;2022-07-23T03:03:41;12.00;;;10.80;;
5379;SDS011;2713;42.680;23.310;2022-07-23T03:06:08;16.27;;;10.97;;
5379;SDS011;2713;42.680;23.310;2022-07-23T03:08:37;13.00;;;11.70;;
5379;SDS011;2713;42.680;23.310;2022-07-23T03:11:04;12.47;;;11.23;;
5379;SDS011;2713;42.680;23.310;2022-07-23T03:13:36;13.80;;;11.70;;
5379;SDS011;2713;42.680;23.310;2022-07-23T03:16:04;13.23;;;11.60;;
5379;SDS011;2713;42.680;23.310;2022-07-23T03:18:34;13.20;;;11.90;;
5379;SDS011;2713;42.680;23.310;2022-07-23T03:21:04;16.67;;;11.50;;
5379;SDS011;2713;42.680;23.310;2022-07-23T03:23:31;14.27;;;12.43;;
5379;SDS011;2713;42.680;23.310;2022-07-23T03:25:58;13.70;;;12.30;;
5379;SDS011;2713;42.680;23.310;2022-07-23T03:28:24;13.53;;;12.10;;
5379;SDS011;2713;42.680;23.310;2022-07-23T03:30:51;16.63;;;12.50;;
5379;SDS011;2713;42.680;23.310;2022-07-23T03:33:20;17.87;;;11.93;;
5379;SDS011;2713;42.680;23.310;2022-07-23T03:35:47;13.47;;;12.00;;
5379;SDS011;2713;42.680;23.310;2022-07-23T03:38:21;12.63;;;10.90;;
5379;SDS011;2713;42.680;23.310;2022-07-23T03:40:49;12.50;;;11.20;;
5379;SDS011;2713;42.680;23.310;2022-07-23T03:43:16;15.60;;;11.37;;
5379;SDS011;2713;42.680;23.310;2022-07-23T03:45:44;14.20;;;11.80;;
5379;SDS011;2713;42.680;23.310;2022-07-23T03:48:10;15.47;;;11.93;;
5379;SDS011;2713;42.680;23.310;2022-07-23T03:50:37;13.13;;;11.73;;
5379;SDS011;2713;42.680;23.310;2022-07-23T03:53:04;15.00;;;11.63;;
5379;SDS011;2713;42.680;23.310;2022-07-23T03:55:34;14.60;;;11.60;;
5379;SDS011;2713;42.680;23.310;2022-07-23T03:58:01;15.33;;;11.90;;
5379;SDS011;2713;42.680;23.310;2022-07-23T04:00:28;14.00;;;11.70;;
5379;SDS011;2713;42.680;23.310;2022-07-23T04:02:55;17.90;;;11.93;;
5379;SDS011;2713;42.680;23.310;2022-07-23T04:05:22;14.40;;;11.93;;
5379;SDS011;2713;42.680;23.310;2022-07-23T04:07:55;16.03;;;12.47;;
5379;SDS011;2713;42.680;23.310;2022-07-23T04:10:22;14.23;;;10.90;;
5379;SDS011;2713;42.680;23.310;2022-07-23T04:12:51;16.20;;;12.60;;
5379;SDS011;2713;42.680;23.310;2022-07-23T04:15:17;13.70;;;11.87;;
5379;SDS011;2713;42.680;23.310;2022-07-23T04:17:45;19.10;;;12.30;;
5379;SDS011;2713;42.680;23.310;2022-07-23T04:20:13;14.30;;;12.20;;
5379;SDS011;2713;42.680;23.310;2022-07-23T04:22:46;14.30;;;12.07;;
5379;SDS011;2713;42.680;23.310;2022-07-23T04:25:13;18.50;;;13.10;;
5379;SDS011;2713;42.680;23.310;2022-07-23T04:27:42;13.07;;;11.77;;
5379;SDS011;2713;42.680;23.310;2022-07-23T04:30:11;13.47;;;12.03;;
5379;SDS011;2713;42.680;23.310;2022-07-23T04:32:39;14.03;;;11.90;;
5379;SDS011;2713;42.680;23.310;2022-07-23T04:35:13;15.30;;;13.10;;
5379;SDS011;2713;42.680;23.310;2022-07-23T04:37:40;15.83;;;12.60;;
5379;SDS011;2713;42.680;23.310;2022-07-23T04:40:08;14.33;;;12.47;;
5379;SDS011;2713;42.680;23.310;2022-07-23T04:42:36;15.30;;;12.30;;
5379;SDS011;2713;42.680;23.310;2022-07-23T04:45:03;19.97;;;13.00;;
5379;SDS011;2713;42.680;23.310;2022-07-23T04:47:31;13.00;;;11.73;;
5379;SDS011;2713;42.680;23.310;2022-07-23T04:49:58;14.40;;;12.97;;
5379;SDS011;2713;42.680;23.310;2022-07-23T04:52:25;14.30;;;12.90;;
5379;SDS011;2713;42.680;23.310;2022-07-23T04:54:52;14.43;;;11.77;;
5379;SDS011;2713;42.680;23.310;2022-07-23T04:57:19;13.90;;;11.80;;
5379;SDS011;2713;42.680;23.310;2022-07-23T04:59:46;14.63;;;12.40;;
5379;SDS011;2713;42.680;23.310;2022-07-23T05:02:13;13.43;;;11.93;;
5379;SDS011;2713;42.680;23.310;2022-07-23T05:04:42;14.43;;;12.77;;
5379;SDS011;2713;42.680;23.310;2022-07-23T05:07:09;13.77;;;11.93;;
5379;SDS011;2713;42.680;23.310;2022-07-23T05:09:36;15.57;;;12.70;;
5379;SDS011;2713;42.680;23.310;2022-07-23T05:12:04;17.03;;;13.33;;
5379;SDS011;2713;42.680;23.310;2022-07-23T05:14:32;13.63;;;12.03;;
5379;SDS011;2713;42.680;23.310;2022-07-23T05:16:58;18.73;;;12.53;;
5379;SDS011;2713;42.680;23.310;2022-07-23T05:19:26;13.70;;;12.27;;
5379;SDS011;2713;42.680;23.310;2022-07-23T05:21:54;18.13;;;11.63;;
5379;SDS011;2713;42.680;23.310;2022-07-23T05:24:21;13.93;;;12.57;;
5379;SDS011;2713;42.680;23.310;2022-07-23T05:26:49;14.73;;;12.40;;
5379;SDS011;2713;42.680;23.310;2022-07-23T05:29:16;13.63;;;11.70;;
5379;SDS011;2713;42.680;23.310;2022-07-23T05:31:42;13.53;;;12.20;;
5379;SDS011;2713;42.680;23.310;2022-07-23T05:34:09;15.47;;;12.07;;
5379;SDS011;2713;42.680;23.310;2022-07-23T05:36:37;13.40;;;12.10;;
5379;SDS011;2713;42.680;23.310;2022-07-23T05:39:05;15.50;;;12.70;;
5379;SDS011;2713;42.680;23.310;2022-07-23T05:41:35;15.50;;;12.80;;
5379;SDS011;2713;42.680;23.310;2022-07-23T05:44:03;14.10;;;12.63;;
5379;SDS011;2713;42.680;23.310;2022-07-23T05:46:31;16.57;;;12.83;;
5379;SDS011;2713;42.680;23.310;2022-07-23T05:49:03;14.20;;;12.70;;
5379;SDS011;2713;42.680;23.310;2022-07-23T05:51:48;17.13;;;13.23;;
5379;SDS011;2713;42.680;23.310;2022-07-23T05:54:23;14.83;;;13.37;;
5379;SDS011;2713;42.680;23.310;2022-07-23T05:56:50;14.03;;;12.53;;
5379;SDS011;2713;42.680;23.310;2022-07-23T05:59:18;15.90;;;12.73;;
5379;SDS011;2713;42.680;23.310;2022-07-23T06:01:45;14.07;;;11.53;;
5379;SDS011;2713;42.680;23.310;2022-07-23T06:04:11;14.73;;;13.17;;
5379;SDS011;2713;42.680;23.310;2022-07-23T06:06:45;15.57;;;14.07;;
5379;SDS011;2713;42.680;23.310;2022-07-23T06:09:12;16.50;;;12.77;;
5379;SDS011;2713;42.680;23.310;2022-07-23T06:11:41;17.50;;;12.70;;
5379;SDS011;2713;42.680;23.310;2022-07-23T06:14:08;14.20;;;11.60;;
5379;SDS011;2713;42.680;23.310;2022-07-23T06:16:51;16.67;;;13.20;;
5379;SDS011;2713;42.680;23.310;2022-07-23T06:19:18;13.83;;;12.43;;
5379;SDS011;2713;42.680;23.310;2022-07-23T06:21:45;14.40;;;12.00;;
5379;SDS011;2713;42.680;23.310;2022-07-23T06:24:12;17.03;;;13.20;;
5379;SDS011;2713;42.680;23.310;2022-07-23T06:26:41;13.77;;;12.40;;
5379;SDS011;2713;42.680;23.310;2022-07-23T06:29:08;14.13;;;12.70;;
5379;SDS011;2713;42.680;23.310;2022-07-23T06:31:35;13.70;;;12.23;;
5379;SDS011;2713;42.680;23.310;2022-07-23T06:34:01;12.63;;;11.53;;
5379;SDS011;2713;42.680;23.310;2022-07-23T06:36:29;15.33;;;11.93;;
5379;SDS011;2713;42.680;23.310;2022-07-23T06:38:56;15.97;;;13.97;;
5379;SDS011;2713;42.680;23.310;2022-07-23T06:41:22;14.10;;;11.70;;
5379;SDS011;2713;42.680;23.310;2022-07-23T06:43:51;17.03;;;12.93;;
5379;SDS011;2713;42.680;23.310;2022-07-23T06:46:20;14.93;;;13.30;;
5379;SDS011;2713;42.680;23.310;2022-07-23T06:48:48;14.33;;;11.87;;
5379;SDS011;2713;42.680;23.310;2022-07-23T06:51:15;13.83;;;12.30;;
5379;SDS011;2713;42.680;23.310;2022-07-23T06:53:42;13.53;;;12.13;;
5379;SDS011;2713;42.680;23.310;2022-07-23T06:56:09;14.47;;;11.87;;
5379;SDS011;2713;42.680;23.310;2022-07-23T06:58:36;13.47;;;11.40;;
5379;SDS011;2713;42.680;23.310;2022-07-23T07:01:05;17.30;;;12.90;;
5379;SDS011;2713;42.680;23.310;2022-07-23T07:03:32;16.70;;;11.53;;
5379;SDS011;2713;42.680;23.310;2022-07-23T07:05:59;13.37;;;11.93;;
5379;SDS011;2713;42.680;23.310;2022-07-23T07:08:27;13.70;;;11.60;;
5379;SDS011;2713;42.680;23.310;2022-07-23T07:10:54;13.00;;;11.20;;
5379;SDS011;2713;42.680;23.310;2022-07-23T07:13:21;16.53;;;13.67;;
5379;SDS011;2713;42.680;23.310;2022-07-23T07:15:48;13.50;;;12.20;;
5379;SDS011;2713;42.680;23.310;2022-07-23T07:18:16;12.60;;;11.30;;
5379;SDS011;2713;42.680;23.310;2022-07-23T07:20:43;11.73;;;10.53;;
5379;SDS011;2713;42.680;23.310;2022-07-23T07:23:10;12.10;;;10.90;;
5379;SDS011;2713;42.680;23.310;2022-07-23T07:25:38;11.20;;;9.27;;
5379;SDS011;2713;42.680;23.310;2022-07-23T07:28:05;17.93;;;11.47;;
5379;SDS011;2713;42.680;23.310;2022-07-23T07:30:32;13.87;;;12.40;;
5379;SDS011;2713;42.680;23.310;2022-07-23T07:32:59;12.07;;;10.47;;
5379;SDS011;2713;42.680;23.310;2022-07-23T07:35:27;14.67;;;12.93;;
5379;SDS011;2713;42.680;23.310;2022-07-23T07:37:54;15.37;;;12.23;;
5379;SDS011;2713;42.680;23.310;2022-07-23T07:40:21;11.37;;;10.23;;
5379;SDS011;2713;42.680;23.310;2022-07-23T07:42:48;13.60;;;10.70;;
5379;SDS011;2713;42.680;23.310;2022-07-23T07:45:16;12.17;;;10.90;;
5379;SDS011;2713;42.680;23.310;2022-07-23T07:47:43;12.17;;;10.90;;
5379;SDS011;2713;42.680;23.310;2022-07-23T07:50:10;14.37;;;11.03;;
5379;SDS011;2713;42.680;23.310;2022-07-23T07:52:38;11.83;;;10.73;;
5379;SDS011;2713;42.680;23.310;2022-07-23T07:55:06;13.80;;;12.10;;
5379;SDS011;2713;42.680;23.310;2022-07-23T07:57:35;15.27;;;12.57;;
5379;SDS011;2713;42.680;23.310;2022-07-23T08:00:02;12.60;;;11.30;;
5379;SDS011;2713;42.680;23.310;2022-07-23T08:02:41;13.30;;;12.00;;
5379;SDS011;2713;42.680;23.310;2022-07-23T08:05:08;16.10;;;13.10;;
5379;SDS011;2713;42.680;23.310;2022-07-23T08:07:36;11.47;;;10.13;;
5379;SDS011;2713;42.680;23.310;2022-07-23T08:10:06;11.70;;;10.37;;
5379;SDS011;2713;42.680;23.310;2022-07-23T08:12:38;13.90;;;11.50;;
5379;SDS011;2713;42.680;23.310;2022-07-23T08:15:07;17.73;;;11.40;;
5379;SDS011;2713;42.680;23.310;2022-07-23T08:17:34;11.63;;;10.47;;
5379;SDS011;2713;42.680;23.310;2022-07-23T08:20:01;15.63;;;11.00;;
5379;SDS011;2713;42.680;23.310;2022-07-23T08:22:41;12.23;;;11.00;;
5379;SDS011;2713;42.680;23.310;2022-07-23T08:25:10;14.07;;;10.63;;
5379;SDS011;2713;42.680;23.310;2022-07-23T08:27:37;18.83;;;13.30;;
5379;SDS011;2713;42.680;23.310;2022-07-23T08:30:04;13.93;;;12.57;;
5379;SDS011;2713;42.680;23.310;2022-07-23T08:32:32;12.03;;;10.90;;
5379;SDS011;2713;42.680;23.310;2022-07-23T08:34:59;12.70;;;10.57;;
5379;SDS011;2713;42.680;23.310;2022-07-23T08:37:26;14.47;;;10.57;;
5379;SDS011;2713;42.680;23.310;2022-07-23T08:39:53;12.47;;;11.10;;
5379;SDS011;2713;42.680;23.310;2022-07-23T08:42:22;13.13;;;11.80;;
5379;SDS011;2713;42.680;23.310;2022-07-23T08:44:50;15.17;;;12.17;;
5379;SDS011;2713;42.680;23.310;2022-07-23T08:47:17;11.83;;;10.63;;
5379;SDS011;2713;42.680;23.310;2022-07-23T08:49:44;12.10;;;10.97;;
5379;SDS011;2713;42.680;23.310;2022-07-23T08:52:12;14.37;;;11.93;;
5379;SDS011;2713;42.680;23.310;2022-07-23T08:54:41;14.67;;;13.17;;
5379;SDS011;2713;42.680;23.310;2022-07-23T08:57:07;12.30;;;11.13;;
5379;SDS011;2713;42.680;23.310;2022-07-23T08:59:36;14.23;;;12.50;;
5379;SDS011;2713;42.680;23.310;2022-07-23T09:02:02;13.27;;;12.07;;
5379;SDS011;2713;42.680;23.310;2022-07-23T09:04:30;13.23;;;11.93;;
5379;SDS011;2713;42.680;23.310;2022-07-23T09:06:57;12.73;;;11.43;;
5379;SDS011;2713;42.680;23.310;2022-07-23T09:09:24;13.33;;;11.47;;
5379;SDS011;2713;42.680;23.310;2022-07-23T09:12:01;12.60;;;11.40;;
5379;SDS011;2713;42.680;23.310;2022-07-23T09:14:38;14.70;;;12.00;;
5379;SDS011;2713;42.680;23.310;2022-07-23T09:17:09;15.30;;;11.70;;
5379;SDS011;2713;42.680;23.310;2022-07-23T09:19:37;14.43;;;12.37;;
5379;SDS011;2713;42.680;23.310;2022-07-23T09:22:20;13.63;;;12.17;;
5379;SDS011;2713;42.680;23.310;2022-07-23T09:25:08;14.57;;;11.80;;
5379;SDS011;2713;42.680;23.310;2022-07-23T09:27:47;12.30;;;10.80;;
5379;SDS011;2713;42.680;23.310;2022-07-23T09:30:17;13.40;;;10.70;;
5379;SDS011;2713;42.680;23.310;2022-07-23T09:32:44;13.30;;;11.20;;
5379;SDS011;2713;42.680;23.310;2022-07-23T09:35:10;12.90;;;11.60;;
5379;SDS011;2713;42.680;23.310;2022-07-23T09:37:37;11.30;;;10.20;;
5379;SDS011;2713;42.680;23.310;2022-07-23T09:40:05;12.03;;;10.77;;
5379;SDS011;2713;42.680;23.310;2022-07-23T09:42:33;12.70;;;11.00;;
5379;SDS011;2713;42.680;23.310;2022-07-23T09:45:00;13.80;;;10.83;;
5379;SDS011;2713;42.680;23.310;2022-07-23T09:47:30;15.83;;;10.37;;
5379;SDS011;2713;42.680;23.310;2022-07-23T09:49:58;12.50;;;9.83;;
5379;SDS011;2713;42.680;23.310;2022-07-23T09:52:27;11.97;;;10.43;;
5379;SDS011;2713;42.680;23.310;2022-07-23T09:54:58;12.00;;;10.10;;
5379;SDS011;2713;42.680;23.310;2022-07-23T09:57:26;12.60;;;9.23;;
5379;SDS011;2713;42.680;23.310;2022-07-23T09:59:53;12.23;;;9.10;;
5379;SDS011;2713;42.680;23.310;2022-07-23T10:02:26;14.63;;;12.30;;
5379;SDS011;2713;42.680;23.310;2022-07-23T10:05:16;11.30;;;8.67;;
5379;SDS011;2713;42.680;23.310;2022-07-23T10:07:58;13.23;;;9.60;;
5379;SDS011;2713;42.680;23.310;2022-07-23T10:10:46;12.73;;;9.70;;
5379;SDS011;2713;42.680;23.310;2022-07-23T10:13:14;11.93;;;9.43;;
5379;SDS011;2713;42.680;23.310;2022-07-23T10:16:04;14.40;;;9.60;;
5379;SDS011;2713;42.680;23.310;2022-07-23T10:18:31;11.10;;;9.53;;
5379;SDS011;2713;42.680;23.310;2022-07-23T10:21:00;9.23;;;8.37;;
5379;SDS011;2713;42.680;23.310;2022-07-23T10:23:33;11.83;;;9.00;;
5379;SDS011;2713;42.680;23.310;2022-07-23T10:26:08;12.60;;;8.60;;
5379;SDS011;2713;42.680;23.310;2022-07-23T10:28:46;10.30;;;8.20;;
5379;SDS011;2713;42.680;23.310;2022-07-23T10:31:28;9.07;;;8.17;;
5379;SDS011;2713;42.680;23.310;2022-07-23T10:34:02;13.80;;;8.10;;
5379;SDS011;2713;42.680;23.310;2022-07-23T10:36:39;8.93;;;7.90;;
5379;SDS011;2713;42.680;23.310;2022-07-23T10:39:14;10.33;;;7.97;;
5379;SDS011;2713;42.680;23.310;2022-07-23T10:41:43;10.10;;;7.77;;
5379;SDS011;2713;42.680;23.310;2022-07-23T10:44:10;11.90;;;8.10;;
5379;SDS011;2713;42.680;23.310;2022-07-23T10:46:53;10.13;;;9.00;;
5379;SDS011;2713;42.680;23.310;2022-07-23T10:49:39;10.70;;;7.80;;
5379;SDS011;2713;42.680;23.310;2022-07-23T10:54:53;16.70;;;13.63;;
5379;SDS011;2713;42.680;23.310;2022-07-23T10:57:23;10.73;;;8.30;;
5379;SDS011;2713;42.680;23.310;2022-07-23T11:02:46;11.17;;;7.13;;
5379;SDS011;2713;42.680;23.310;2022-07-23T11:05:14;9.43;;;6.43;;
5379;SDS011;2713;42.680;23.310;2022-07-23T11:10:42;11.27;;;7.10;;
5379;SDS011;2713;42.680;23.310;2022-07-23T11:16:08;16.70;;;8.50;;
5379;SDS011;2713;42.680;23.310;2022-07-23T11:18:59;10.07;;;8.03;;
5379;SDS011;2713;42.680;23.310;2022-07-23T11:21:47;11.03;;;8.30;;
5379;SDS011;2713;42.680;23.310;2022-07-23T11:24:17;13.40;;;8.40;;
5379;SDS011;2713;42.680;23.310;2022-07-23T11:29:45;13.30;;;8.10;;
5379;SDS011;2713;42.680;23.310;2022-07-23T11:35:24;11.87;;;7.27;;
5379;SDS011;2713;42.680;23.310;2022-07-23T11:37:54;13.90;;;7.70;;
5379;SDS011;2713;42.680;23.310;2022-07-23T11:40:30;15.60;;;7.07;;
5379;SDS011;2713;42.680;23.310;2022-07-23T11:42:58;10.43;;;7.67;;
5379;SDS011;2713;42.680;23.310;2022-07-23T11:45:30;21.37;;;8.90;;
5379;SDS011;2713;42.680;23.310;2022-07-23T11:47:58;12.00;;;7.70;;
5379;SDS011;2713;42.680;23.310;2022-07-23T11:50:25;13.07;;;7.00;;
5379;SDS011;2713;42.680;23.310;2022-07-23T11:52:52;11.57;;;8.73;;
5379;SDS011;2713;42.680;23.310;2022-07-23T11:55:28;9.80;;;6.53;;
5379;SDS011;2713;42.680;23.310;2022-07-23T11:57:56;14.60;;;6.10;;
5379;SDS011;2713;42.680;23.310;2022-07-23T12:00:24;13.60;;;7.63;;
5379;SDS011;2713;42.680;23.310;2022-07-23T12:02:52;13.90;;;6.60;;
5379;SDS011;2713;42.680;23.310;2022-07-23T12:05:22;12.47;;;6.67;;
5379;SDS011;2713;42.680;23.310;2022-07-23T12:07:51;11.90;;;7.30;;
5379;SDS011;2713;42.680;23.310;2022-07-23T12:10:21;9.87;;;6.43;;
5379;SDS011;2713;42.680;23.310;2022-07-23T12:12:50;12.70;;;6.43;;
5379;SDS011;2713;42.680;23.310;2022-07-23T12:15:20;11.93;;;6.10;;
5379;SDS011;2713;42.680;23.310;2022-07-23T12:17:49;13.10;;;6.33;;
5379;SDS011;2713;42.680;23.310;2022-07-23T12:20:18;15.77;;;7.80;;
5379;SDS011;2713;42.680;23.310;2022-07-23T12:22:47;15.53;;;7.97;;
5379;SDS011;2713;42.680;23.310;2022-07-23T12:25:16;9.87;;;6.83;;
5379;SDS011;2713;42.680;23.310;2022-07-23T12:27:44;9.70;;;6.20;;
5379;SDS011;2713;42.680;23.310;2022-07-23T12:30:16;14.23;;;6.70;;
5379;SDS011;2713;42.680;23.310;2022-07-23T12:32:49;15.53;;;7.17;;
5379;SDS011;2713;42.680;23.310;2022-07-23T12:35:17;12.63;;;6.60;;
5379;SDS011;2713;42.680;23.310;2022-07-23T12:37:45;13.10;;;6.93;;
5379;SDS011;2713;42.680;23.310;2022-07-23T12:40:20;11.17;;;5.90;;
5379;SDS011;2713;42.680;23.310;2022-07-23T12:42:49;10.27;;;7.50;;
5379;SDS011;2713;42.680;23.310;2022-07-23T12:45:18;16.23;;;8.00;;
5379;SDS011;2713;42.680;23.310;2022-07-23T12:47:51;9.57;;;6.57;;
5379;SDS011;2713;42.680;23.310;2022-07-23T12:50:40;11.47;;;6.97;;
5379;SDS011;2713;42.680;23.310;2022-07-23T12:53:14;12.20;;;6.87;;
5379;SDS011;2713;42.680;23.310;2022-07-23T12:55:43;14.37;;;7.57;;
5379;SDS011;2713;42.680;23.310;2022-07-23T12:58:11;13.03;;;6.87;;
5379;SDS011;2713;42.680;23.310;2022-07-23T13:00:56;14.77;;;6.80;;
5379;SDS011;2713;42.680;23.310;2022-07-23T13:03:30;14.50;;;7.33;;
5379;SDS011;2713;42.680;23.310;2022-07-23T13:05:58;10.23;;;6.30;;
5379;SDS011;2713;42.680;23.310;2022-07-23T13:08:27;13.13;;;6.53;;
5379;SDS011;2713;42.680;23.310;2022-07-23T13:10:55;20.10;;;6.07;;
5379;SDS011;2713;42.680;23.310;2022-07-23T13:13:23;10.30;;;6.10;;
5379;SDS011;2713;42.680;23.310;2022-07-23T13:15:51;9.70;;;5.60;;
5379;SDS011;2713;42.680;23.310;2022-07-23T13:18:20;11.70;;;5.87;;
5379;SDS011;2713;42.680;23.310;2022-07-23T13:20:47;15.00;;;6.67;;
5379;SDS011;2713;42.680;23.310;2022-07-23T13:23:15;14.00;;;6.47;;
5379;SDS011;2713;42.680;23.310;2022-07-23T13:25:43;15.30;;;6.70;;
5379;SDS011;2713;42.680;23.310;2022-07-23T13:28:10;10.60;;;6.40;;
5379;SDS011;2713;42.680;23.310;2022-07-23T13:30:38;15.23;;;6.97;;
5379;SDS011;2713;42.680;23.310;2022-07-23T13:33:05;16.70;;;6.67;;
5379;SDS011;2713;42.680;23.310;2022-07-23T13:35:34;10.13;;;6.40;;
5379;SDS011;2713;42.680;23.310;2022-07-23T13:38:05;11.80;;;6.13;;
5379;SDS011;2713;42.680;23.310;2022-07-23T13:40:34;11.83;;;6.77;;
5379;SDS011;2713;42.680;23.310;2022-07-23T13:43:04;8.27;;;6.23;;
5379;SDS011;2713;42.680;23.310;2022-07-23T13:45:31;9.47;;;6.20;;
5379;SDS011;2713;42.680;23.310;2022-07-23T13:47:58;15.57;;;6.20;;
5379;SDS011;2713;42.680;23.310;2022-07-23T13:50:25;10.57;;;6.60;;
5379;SDS011;2713;42.680;23.310;2022-07-23T13:52:53;8.23;;;6.10;;
5379;SDS011;2713;42.680;23.310;2022-07-23T13:55:20;12.20;;;6.50;;
5379;SDS011;2713;42.680;23.310;2022-07-23T13:57:47;9.67;;;6.23;;
5379;SDS011;2713;42.680;23.310;2022-07-23T14:00:14;9.20;;;5.80;;
5379;SDS011;2713;42.680;23.310;2022-07-23T14:02:41;14.83;;;7.50;;
5379;SDS011;2713;42.680;23.310;2022-07-23T14:05:09;13.80;;;7.27;;
5379;SDS011;2713;42.680;23.310;2022-07-23T14:07:37;10.53;;;6.90;;
5379;SDS011;2713;42.680;23.310;2022-07-23T14:10:07;10.00;;;6.63;;
5379;SDS011;2713;42.680;23.310;2022-07-23T14:12:35;11.90;;;6.50;;
5379;SDS011;2713;42.680;23.310;2022-07-23T14:15:02;11.07;;;6.80;;
5379;SDS011;2713;42.680;23.310;2022-07-23T14:17:29;11.20;;;6.40;;
5379;SDS011;2713;42.680;23.310;2022-07-23T14:19:56;15.00;;;7.13;;
5379;SDS011;2713;42.680;23.310;2022-07-23T14:22:23;9.60;;;6.37;;
5379;SDS011;2713;42.680;23.310;2022-07-23T14:24:50;13.73;;;7.27;;
5379;SDS011;2713;42.680;23.310;2022-07-23T14:27:18;9.80;;;7.03;;
5379;SDS011;2713;42.680;23.310;2022-07-23T14:29:45;8.87;;;6.37;;
5379;SDS011;2713;42.680;23.310;2022-07-23T14:32:12;10.50;;;7.00;;
5379;SDS011;2713;42.680;23.310;2022-07-23T14:34:39;10.37;;;6.53;;
5379;SDS011;2713;42.680;23.310;2022-07-23T14:37:06;12.67;;;7.07;;
5379;SDS011;2713;42.680;23.310;2022-07-23T14:39:33;9.60;;;6.93;;
5379;SDS011;2713;42.680;23.310;2022-07-23T14:42:00;9.03;;;6.80;;
5379;SDS011;2713;42.680;23.310;2022-07-23T14:44:28;14.50;;;7.37;;
5379;SDS011;2713;42.680;23.310;2022-07-23T14:46:55;11.70;;;6.93;;
5379;SDS011;2713;42.680;23.310;2022-07-23T14:49:22;12.23;;;6.60;;
5379;SDS011;2713;42.680;23.310;2022-07-23T14:51:49;12.60;;;7.73;;
5379;SDS011;2713;42.680;23.310;2022-07-23T14:54:16;12.00;;;7.47;;
5379;SDS011;2713;42.680;23.310;2022-07-23T14:56:43;11.50;;;7.40;;
5379;SDS011;2713;42.680;23.310;2022-07-23T14:59:10;10.40;;;6.60;;
5379;SDS011;2713;42.680;23.310;2022-07-23T15:01:38;12.50;;;6.77;;
5379;SDS011;2713;42.680;23.310;2022-07-23T15:04:05;15.23;;;7.33;;
5379;SDS011;2713;42.680;23.310;2022-07-23T15:06:33;11.00;;;6.37;;
5379;SDS011;2713;42.680;23.310;2022-07-23T15:08:59;8.80;;;6.60;;
5379;SDS011;2713;42.680;23.310;2022-07-23T15:11:26;12.33;;;7.00;;